createdAt,value
2019-02-25T00:00:18.436Z,-2.99
2019-02-25T00:03:48.543Z,-3.01
2019-02-25T00:07:18.622Z,-2.93
2019-02-25T00:10:48.595Z,-2.98
2019-02-25T00:14:18.699Z,-2.96
2019-02-25T00:17:49.708Z,-2.86
2019-02-25T00:21:19.741Z,-2.82
2019-02-25T00:24:49.717Z,-2.86
2019-02-25T00:28:19.705Z,-2.97
2019-02-25T00:31:49.695Z,-2.91
2019-02-25T00:35:19.663Z,-2.92
2019-02-25T00:38:50.276Z,-3.02
2019-02-25T00:42:20.234Z,-2.93
2019-02-25T00:45:50.329Z,-2.91
2019-02-25T00:49:20.479Z,-2.9
2019-02-25T00:52:50.568Z,-2.83
2019-02-25T00:56:20.526Z,-2.76
2019-02-25T00:59:50.509Z,-2.71
2019-02-25T01:03:20.812Z,-2.7
2019-02-25T01:06:50.864Z,-2.72
2019-02-25T01:10:20.912Z,-2.63
2019-02-25T01:13:51.021Z,-2.71
2019-02-25T01:17:21.060Z,-2.68
2019-02-25T01:20:52.160Z,-2.63
2019-02-25T01:24:22.178Z,-2.6
2019-02-25T01:27:52.297Z,-2.62
2019-02-25T01:31:22.336Z,-2.47
2019-02-25T01:34:52.305Z,-2.48
2019-02-25T01:38:22.324Z,-2.45
2019-02-25T01:41:52.333Z,-2.48
2019-02-25T01:45:22.388Z,-2.38
2019-02-25T01:48:52.520Z,-2.41
2019-02-25T01:52:22.483Z,-2.45
2019-02-25T01:55:52.528Z,-2.43
2019-02-25T01:59:22.612Z,-2.37
2019-02-25T02:00:16.248Z,-2.36
2019-02-25T02:03:46.208Z,-2.28
2019-02-25T02:07:16.126Z,-2.35
2019-02-25T02:10:46.274Z,-2.25
2019-02-25T02:14:16.333Z,-2.3
2019-02-25T02:17:46.381Z,-2.25
2019-02-25T02:21:18.121Z,-2.27
2019-02-25T02:24:48.210Z,-2.27
2019-02-25T02:28:18.189Z,-2.23
2019-02-25T02:31:48.228Z,-2.27
2019-02-25T02:35:18.256Z,-2.33
2019-02-25T02:38:48.295Z,-2.3
2019-02-25T02:42:20.044Z,-2.21
2019-02-25T02:45:55.484Z,-2.28
2019-02-25T02:49:25.477Z,-2.29
2019-02-25T02:52:55.563Z,-2.33
2019-02-25T02:56:25.570Z,-2.33
2019-02-25T02:59:55.609Z,-2.34
2019-02-25T03:03:25.639Z,-2.43
2019-02-25T03:06:55.662Z,-2.31
2019-02-25T03:10:25.667Z,-2.29
2019-02-25T03:13:55.715Z,-2.36
2019-02-25T03:17:25.709Z,-2.31
2019-02-25T03:20:55.986Z,-2.36
2019-02-25T03:24:26.972Z,-2.43
2019-02-25T03:27:56.921Z,-2.38
2019-02-25T03:31:27.061Z,-2.28
2019-02-25T03:34:57.024Z,-2.32
2019-02-25T03:38:26.950Z,-2.41
2019-02-25T03:41:57.223Z,-2.39
2019-02-25T03:45:27.320Z,-2.35
2019-02-25T03:48:57.417Z,-2.3
2019-02-25T03:52:27.505Z,-2.32
2019-02-25T03:55:57.642Z,-2.25
2019-02-25T03:59:27.700Z,-2.23
2019-02-25T04:00:18.368Z,-2.21
2019-02-25T04:03:48.668Z,-2.18
2019-02-25T04:07:18.767Z,-2.22
2019-02-25T04:10:48.875Z,-2.28
2019-02-25T04:14:18.946Z,-2.28
2019-02-25T04:17:49.106Z,-2.31
2019-02-25T04:21:19.119Z,-2.26
2019-02-25T04:24:50.073Z,-2.24
2019-02-25T04:28:20.107Z,-2.31
2019-02-25T04:31:50.157Z,-2.26
2019-02-25T04:35:20.233Z,-2.36
2019-02-25T04:38:50.332Z,-2.25
2019-02-25T04:42:20.429Z,-2.19
2019-02-25T04:45:50.512Z,-2.14
2019-02-25T04:49:20.477Z,-2
2019-02-25T04:52:50.534Z,-1.95
2019-02-25T04:56:20.612Z,-2.08
2019-02-25T04:59:50.693Z,-2.09
2019-02-25T05:03:20.641Z,-2.12
2019-02-25T05:06:50.730Z,-2.24
2019-02-25T05:10:20.827Z,-1.95
2019-02-25T05:13:50.904Z,-1.82
2019-02-25T05:17:20.960Z,-1.79
2019-02-25T05:20:51.114Z,-1.65
2019-02-25T05:24:21.090Z,-1.64
2019-02-25T05:27:51.389Z,-1.65
2019-02-25T05:31:21.516Z,-1.75
2019-02-25T05:34:51.513Z,-1.73
2019-02-25T05:38:21.534Z,-1.83
2019-02-25T05:41:51.562Z,-1.87
2019-02-25T05:45:21.710Z,-1.87
2019-02-25T05:48:51.870Z,-1.76
2019-02-25T05:52:21.910Z,-1.75
2019-02-25T05:55:51.944Z,-1.72
2019-02-25T05:59:21.993Z,-1.66
2019-02-25T06:00:19.532Z,-1.66
2019-02-25T06:03:49.564Z,-1.54
2019-02-25T06:07:19.674Z,-1.49
2019-02-25T06:10:49.769Z,-1.49
2019-02-25T06:14:19.826Z,-1.53
2019-02-25T06:17:49.916Z,-1.49
2019-02-25T06:21:19.919Z,-1.44
2019-02-25T06:24:49.954Z,-1.29
2019-02-25T06:28:20.973Z,-1.09
2019-02-25T06:31:51.058Z,-0.94
2019-02-25T06:35:21.106Z,-0.81
2019-02-25T06:38:51.185Z,-0.7
2019-02-25T06:42:21.153Z,-0.52
2019-02-25T06:45:51.211Z,-0.43
2019-02-25T06:49:21.181Z,-0.27
2019-02-25T06:52:51.479Z,-0.38
2019-02-25T06:56:21.496Z,-0.27
2019-02-25T06:59:51.565Z,-0.11
2019-02-25T07:03:21.555Z,-0.09
2019-02-25T07:07:10.781Z,-0.38
2019-02-25T07:10:53.402Z,-0.6
2019-02-25T07:14:31.269Z,-0.55
2019-02-25T07:18:16.857Z,-0.29
2019-02-25T07:21:53.355Z,0.03
2019-02-25T07:25:41.373Z,0.27
2019-02-25T07:29:20.725Z,0.53
2019-02-25T07:33:14.651Z,0.58
2019-02-25T07:36:58.740Z,0.73
2019-02-25T07:40:45.193Z,0.95
2019-02-25T07:44:39.110Z,1.01
2019-02-25T07:49:20.965Z,1.16
2019-02-25T07:52:57.452Z,1.2
2019-02-25T07:57:07.833Z,1.29
2019-02-25T08:00:35.793Z,1.49
2019-02-25T08:06:36.180Z,1.57
2019-02-25T08:10:14.086Z,2.03
2019-02-25T08:14:53.563Z,2.22
2019-02-25T08:18:35.166Z,2.64
2019-02-25T08:22:44.826Z,2.75
2019-02-25T08:26:22.618Z,2.81
2019-02-25T08:30:17.614Z,2.41
2019-02-25T08:33:58.636Z,2.08
2019-02-25T08:37:54.253Z,2.46
2019-02-25T08:41:30.562Z,2.84
2019-02-25T08:45:06.411Z,2.89
2019-02-25T08:49:13.399Z,3.12
2019-02-25T08:52:43.516Z,2.9
2019-02-25T08:56:13.567Z,2.81
2019-02-25T08:59:43.675Z,3.04
2019-02-25T09:03:13.773Z,2.83
2019-02-25T09:06:43.892Z,3.07
2019-02-25T09:10:14.001Z,3.07
2019-02-25T09:13:44.049Z,3.17
2019-02-25T09:17:16.070Z,2.93
2019-02-25T09:20:46.189Z,2.94
2019-02-25T09:24:16.255Z,3.1
2019-02-25T09:27:46.254Z,3.33
2019-02-25T09:31:17.244Z,3.36
2019-02-25T09:34:47.215Z,3.1
2019-02-25T09:38:17.219Z,3.03
2019-02-25T09:41:47.308Z,3
2019-02-25T09:45:17.307Z,3.22
2019-02-25T09:48:47.446Z,3.47
2019-02-25T09:52:17.484Z,3.85
2019-02-25T09:55:47.613Z,4
2019-02-25T09:59:17.602Z,4.17
2019-02-25T10:00:16.061Z,4.26
2019-02-25T10:03:46.132Z,4.26
2019-02-25T10:07:16.237Z,4.46
2019-02-25T10:10:46.313Z,4.08
2019-02-25T10:14:16.276Z,3.7
2019-02-25T10:17:46.294Z,3.86
2019-02-25T10:21:16.296Z,3.59
2019-02-25T10:24:46.332Z,3.36
2019-02-25T10:28:16.393Z,3.61
2019-02-25T10:31:47.569Z,3.96
2019-02-25T10:35:18.078Z,4.33
2019-02-25T10:38:48.036Z,3.81
2019-02-25T10:42:18.134Z,4.07
2019-02-25T10:45:48.273Z,4.52
2019-02-25T10:49:18.312Z,4.35
2019-02-25T10:52:49.506Z,3.88
2019-02-25T10:56:25.958Z,4.02
2019-02-25T10:59:56.188Z,3.77
2019-02-25T11:03:26.180Z,3.72
2019-02-25T11:06:56.175Z,3.9
2019-02-25T11:10:34.654Z,4.19
2019-02-25T11:14:05.527Z,4.68
2019-02-25T11:17:37.051Z,4.7
2019-02-25T11:21:08.854Z,5.07
2019-02-25T11:24:40.498Z,4.86
2019-02-25T11:28:22.663Z,5.59
2019-02-25T11:31:55.614Z,6.13
2019-02-25T11:35:25.816Z,6.38
2019-02-25T11:38:57.821Z,7.56
2019-02-25T11:42:28.410Z,7.34
2019-02-25T11:45:58.490Z,7.56
2019-02-25T11:49:28.549Z,6.95
2019-02-25T11:52:58.539Z,6.86
2019-02-25T11:56:28.636Z,7.31
2019-02-25T11:59:58.692Z,7.36
2019-02-25T12:00:17.327Z,7.38
2019-02-25T12:03:47.324Z,6.5
2019-02-25T12:07:17.382Z,6.04
2019-02-25T12:10:47.482Z,6.29
2019-02-25T12:14:17.530Z,6.19
2019-02-25T12:17:47.759Z,6.34
2019-02-25T12:21:17.767Z,6.36
2019-02-25T12:24:47.886Z,6.1
2019-02-25T12:28:17.844Z,6.21
2019-02-25T12:31:47.963Z,6.83
2019-02-25T12:35:19.052Z,6.55
2019-02-25T12:38:49.159Z,6.46
2019-02-25T12:42:19.130Z,6.17
2019-02-25T12:45:49.288Z,6.38
2019-02-25T12:49:19.396Z,6.34
2019-02-25T12:52:49.575Z,7.22
2019-02-25T12:56:19.648Z,7.82
2019-02-25T12:59:49.793Z,7.61
2019-02-25T13:03:19.833Z,8.74
2019-02-25T13:06:49.860Z,9.9
2019-02-25T13:10:20.090Z,10.14
2019-02-25T13:13:50.160Z,10.57
2019-02-25T13:17:20.137Z,10.31
2019-02-25T13:20:50.222Z,8.63
2019-02-25T13:24:20.265Z,7.9
2019-02-25T13:27:52.026Z,7.1
2019-02-25T13:31:23.903Z,7.42
2019-02-25T13:34:53.949Z,7.36
2019-02-25T13:38:24.956Z,7.44
2019-02-25T13:41:55.127Z,7.29
2019-02-25T13:45:25.193Z,7.17
2019-02-25T13:48:57.342Z,7.34
2019-02-25T13:52:27.526Z,7.91
2019-02-25T13:55:57.595Z,7.86
2019-02-25T13:59:27.605Z,7.86
2019-02-25T14:00:17.364Z,7.96
2019-02-25T14:03:47.823Z,7.86
2019-02-25T14:07:17.962Z,8.15
2019-02-25T14:10:48.072Z,7.75
2019-02-25T14:14:18.216Z,7.62
2019-02-25T14:17:48.402Z,7.32
2019-02-25T14:21:18.620Z,7.6
2019-02-25T14:24:48.742Z,8.35
2019-02-25T14:28:18.880Z,8.57
2019-02-25T14:31:51.026Z,8.94
2019-02-25T14:35:23.060Z,8.43
2019-02-25T14:38:54.139Z,7.86
2019-02-25T14:42:28.066Z,7.77
2019-02-25T14:46:01.429Z,7.48
2019-02-25T14:49:32.705Z,7.49
2019-02-25T14:53:06.616Z,7.61
2019-02-25T14:56:38.618Z,7.53
2019-02-25T15:00:11.127Z,6.72
2019-02-25T15:03:41.166Z,6.86
2019-02-25T15:07:13.072Z,6.78
2019-02-25T15:10:44.854Z,6.77
2019-02-25T15:14:16.715Z,6.37
2019-02-25T15:17:48.170Z,6.41
2019-02-25T15:21:20.284Z,6.47
2019-02-25T15:24:52.406Z,6.55
2019-02-25T15:28:23.042Z,6.72
2019-02-25T15:31:54.730Z,6.83
2019-02-25T15:35:28.845Z,6.65
2019-02-25T15:39:04.191Z,6.39
2019-02-25T15:42:37.187Z,6.18
2019-02-25T15:46:10.452Z,5.76
2019-02-25T15:49:42.480Z,5.41
2019-02-25T15:53:15.866Z,5.04
2019-02-25T15:56:46.329Z,4.56
2019-02-25T16:00:19.085Z,4.4
2019-02-25T16:03:51.339Z,3.98
2019-02-25T16:07:23.876Z,3.88
2019-02-25T16:10:55.737Z,3.65
2019-02-25T16:14:27.721Z,3.61
2019-02-25T16:17:59.745Z,3.53
2019-02-25T16:21:29.874Z,3.52
2019-02-25T16:25:00.569Z,3.44
2019-02-25T16:28:34.020Z,3.3
2019-02-25T16:32:05.722Z,3.19
2019-02-25T16:35:37.319Z,3.08
2019-02-25T16:39:10.162Z,3.07
2019-02-25T16:42:41.338Z,3.04
2019-02-25T16:46:14.043Z,2.89
2019-02-25T16:49:45.769Z,2.82
2019-02-25T16:53:17.773Z,2.85
2019-02-25T16:56:48.360Z,2.81
2019-02-25T17:00:18.437Z,2.77
2019-02-25T17:03:48.604Z,2.73
2019-02-25T17:07:20.357Z,2.75
2019-02-25T17:10:51.911Z,2.83
2019-02-25T17:14:25.167Z,2.77
2019-02-25T17:17:58.423Z,2.59
2019-02-25T17:21:30.783Z,2.59
2019-02-25T17:25:02.864Z,2.6
2019-02-25T17:28:33.832Z,2.47
2019-02-25T17:32:14.669Z,2.28
2019-02-25T17:35:47.609Z,2.14
2019-02-25T17:39:20.330Z,2.06
2019-02-25T17:42:51.652Z,2.08
2019-02-25T17:46:23.538Z,2.09
2019-02-25T17:49:53.739Z,2.07
2019-02-25T17:53:24.503Z,2.08
2019-02-25T17:56:56.226Z,2.19
2019-02-25T18:00:18.726Z,2.18
2019-02-25T18:03:49.115Z,2.2
2019-02-25T18:07:19.206Z,2.19
2019-02-25T18:10:50.072Z,2.14
2019-02-25T18:14:21.913Z,2.14
2019-02-25T18:17:53.526Z,2.11
2019-02-25T18:21:28.291Z,2.05
2019-02-25T18:24:59.031Z,2.08
2019-02-25T18:28:29.090Z,2.01
2019-02-25T18:31:59.570Z,2.04
2019-02-25T18:35:29.659Z,2.03
2019-02-25T18:39:00.011Z,1.95
2019-02-25T18:42:31.655Z,1.85
2019-02-25T18:46:04.810Z,1.81
2019-02-25T18:49:36.647Z,1.78
2019-02-25T18:53:07.378Z,1.8
2019-02-25T18:56:38.193Z,1.75
2019-02-25T19:00:13.505Z,1.75
2019-02-25T19:03:43.856Z,1.61
2019-02-25T19:07:14.017Z,1.48
2019-02-25T19:10:45.701Z,1.36
2019-02-25T19:14:20.169Z,1.19
2019-02-25T19:17:52.178Z,1.17
2019-02-25T19:21:25.451Z,1.16
2019-02-25T19:24:56.109Z,1.11
2019-02-25T19:28:27.730Z,1.08
2019-02-25T19:32:00.620Z,1.08
2019-02-25T19:35:33.028Z,0.96
2019-02-25T19:39:09.982Z,0.91
2019-02-25T19:42:45.460Z,0.84
2019-02-25T19:46:17.515Z,0.78
2019-02-25T19:49:47.710Z,0.76
2019-02-25T19:53:20.170Z,0.67
2019-02-25T19:56:51.485Z,0.68
2019-02-25T20:00:21.906Z,0.73
2019-02-25T20:03:52.271Z,0.73
2019-02-25T20:07:25.875Z,0.74
2019-02-25T20:10:58.039Z,0.78
2019-02-25T20:14:31.046Z,0.81
2019-02-25T20:18:01.597Z,0.84
2019-02-25T20:21:31.707Z,0.98
2019-02-25T20:25:02.282Z,1.01
2019-02-25T20:28:32.413Z,0.9
2019-02-25T20:32:04.076Z,0.84
2019-02-25T20:35:34.163Z,0.78
2019-02-25T20:39:04.513Z,0.77
2019-02-25T20:42:34.506Z,0.71
2019-02-25T20:46:06.150Z,0.67
2019-02-25T20:49:36.206Z,0.72
2019-02-25T20:53:08.449Z,0.69
2019-02-25T20:56:39.360Z,0.65
2019-02-25T21:00:13.805Z,0.69
2019-02-25T21:03:45.959Z,0.69
2019-02-25T21:07:17.868Z,1.18
2019-02-25T21:10:47.912Z,1.52
2019-02-25T21:14:17.976Z,1.6
2019-02-25T21:17:47.995Z,1.65
2019-02-25T21:21:18.060Z,1.71
2019-02-25T21:24:49.495Z,1.7
2019-02-25T21:28:25.090Z,1.76
2019-02-25T21:31:58.749Z,1.81
2019-02-25T21:35:30.150Z,1.94
2019-02-25T21:39:05.381Z,1.92
2019-02-25T21:42:35.410Z,1.86
2019-02-25T21:46:05.479Z,1.87
2019-02-25T21:49:38.176Z,1.89
2019-02-25T21:53:09.466Z,1.78
2019-02-25T21:56:41.317Z,1.73
2019-02-25T22:00:15.187Z,1.76
2019-02-25T22:03:47.965Z,1.89
2019-02-25T22:07:24.253Z,1.92
2019-02-25T22:10:58.249Z,1.97
2019-02-25T22:14:30.218Z,1.94
2019-02-25T22:18:01.688Z,1.86
2019-02-25T22:21:33.402Z,1.78
2019-02-25T22:25:06.143Z,1.79
2019-02-25T22:28:39.436Z,1.69
2019-02-25T22:32:10.927Z,1.73
2019-02-25T22:35:42.554Z,1.69
2019-02-25T22:39:15.239Z,1.65
2019-02-25T22:42:47.136Z,1.66
2019-02-25T22:46:19.520Z,1.65
2019-02-25T22:49:50.527Z,1.72
2019-02-25T22:53:20.554Z,1.54
2019-02-25T22:56:50.625Z,1.49
2019-02-25T23:00:27.707Z,1.28
2019-02-25T23:03:57.733Z,1.08
2019-02-25T23:07:27.858Z,1.05
2019-02-25T23:10:57.873Z,0.94
2019-02-25T23:14:28.542Z,0.98
2019-02-25T23:18:05.360Z,0.91
2019-02-25T23:21:38.338Z,0.82
2019-02-25T23:25:08.589Z,0.8
2019-02-25T23:28:38.658Z,0.76
2019-02-25T23:32:08.788Z,0.78
2019-02-25T23:35:40.975Z,0.77
2019-02-25T23:39:17.046Z,0.81
2019-02-25T23:42:49.107Z,0.78
2019-02-25T23:46:22.913Z,0.74
2019-02-25T23:49:54.676Z,0.72
2019-02-25T23:53:26.630Z,0.66
2019-02-25T23:57:00.158Z,0.6
